Time;durP1;ratioP1;P1;durP2;ratioP2;P2;SDS_P1;SDS_P2;PMS_P1;PMS_P2;Temp;Humidity;BMP_temperature;BMP_pressure;BME280_temperature;BME280_humidity;BME280_pressure;Samples;Min_cycle;Max_cycle;Signal;HPM_P1;HPM_P2
2021/12/07 00:02:46;;;;;;;9.40;7.27;;;1.20;99.90;;;;;;5058659;28;20237;-88
2021/12/07 00:05:12;;;;;;;10.40;6.53;;;1.20;99.90;;;;;;5059046;28;20183;-89
2021/12/07 00:07:42;;;;;;;9.57;6.90;;;1.20;99.90;;;;;;5058755;28;20205;-88
2021/12/07 00:10:08;;;;;;;9.47;5.83;;;1.30;99.90;;;;;;5058434;28;20184;-89
2021/12/07 00:12:38;;;;;;;8.77;6.00;;;1.30;99.90;;;;;;5058399;28;20269;-88
2021/12/07 00:15:05;;;;;;;10.30;7.03;;;1.20;99.90;;;;;;5058794;28;20186;-88
2021/12/07 00:17:32;;;;;;;9.93;7.17;;;1.20;99.90;;;;;;5058642;28;20183;-88
2021/12/07 00:20:00;;;;;;;10.47;6.80;;;1.20;99.90;;;;;;5058296;28;20228;-88
2021/12/07 00:22:27;;;;;;;10.23;6.90;;;1.20;99.90;;;;;;5058249;28;20701;-88
2021/12/07 00:24:53;;;;;;;9.30;6.80;;;1.20;99.90;;;;;;5058601;28;20181;-88
2021/12/07 00:27:19;;;;;;;10.93;6.87;;;1.20;99.90;;;;;;5058054;28;20213;-88
2021/12/07 00:29:55;;;;;;;10.70;6.80;;;1.30;99.90;;;;;;5057690;28;20177;-88
2021/12/07 00:37:29;;;;;;;11.67;8.00;;;1.30;99.90;;;;;;5055074;28;20166;-89
2021/12/07 00:39:56;;;;;;;11.97;7.73;;;1.40;99.90;;;;;;5037813;28;20216;-88
2021/12/07 00:42:23;;;;;;;13.10;6.63;;;1.40;99.90;;;;;;5037478;28;20173;-88
2021/12/07 00:44:49;;;;;;;12.20;6.90;;;1.40;99.90;;;;;;5037822;28;20189;-88
2021/12/07 00:47:16;;;;;;;9.90;6.07;;;1.50;99.90;;;;;;5037698;28;20178;-88
2021/12/07 00:49:43;;;;;;;7.23;5.23;;;1.50;99.90;;;;;;5037678;28;20223;-88
2021/12/07 00:52:10;;;;;;;7.50;4.60;;;1.60;99.90;;;;;;5038089;28;20216;-88
2021/12/07 00:54:37;;;;;;;5.80;4.37;;;1.60;99.90;;;;;;5037607;28;20212;-88
2021/12/07 00:57:04;;;;;;;6.53;4.37;;;1.70;99.90;;;;;;5038323;28;20178;-88
2021/12/07 00:59:31;;;;;;;6.63;4.50;;;1.70;99.90;;;;;;5037543;28;20194;-88
2021/12/07 01:01:57;;;;;;;7.40;5.17;;;1.70;99.90;;;;;;5037436;28;20173;-89
2021/12/07 01:04:27;;;;;;;6.67;4.60;;;1.70;99.90;;;;;;5037897;28;20189;-88
2021/12/07 01:25:39;;;;;;;8.40;6.17;;;1.60;99.90;;;;;;5073983;28;20235;-88
2021/12/07 01:28:22;;;;;;;9.27;5.40;;;1.60;99.90;;;;;;5057101;28;20204;-88
2021/12/07 01:47:30;;;;;;;8.43;5.57;;;1.70;99.90;;;;;;5074002;28;20250;-88
2021/12/07 01:52:52;;;;;;;9.37;6.10;;;1.80;99.90;;;;;;5072861;28;20207;-88
2021/12/07 02:00:37;;;;;;;8.60;5.87;;;1.80;99.90;;;;;;5073032;28;20169;-89
2021/12/07 02:03:03;;;;;;;9.17;6.03;;;1.80;99.90;;;;;;5056470;28;20542;-89
2021/12/07 02:05:30;;;;;;;8.93;6.13;;;1.80;99.90;;;;;;5056435;28;20188;-89
2021/12/07 02:07:56;;;;;;;9.03;5.77;;;1.80;99.90;;;;;;5056439;28;20204;-88
2021/12/07 02:10:26;;;;;;;7.87;5.70;;;1.80;99.90;;;;;;5056235;28;20261;-88
2021/12/07 02:13:02;;;;;;;8.43;5.80;;;1.90;99.90;;;;;;5056952;28;20215;-88
2021/12/07 02:15:29;;;;;;;9.83;5.73;;;1.90;99.90;;;;;;5056128;28;20185;-89
2021/12/07 02:17:55;;;;;;;9.83;6.90;;;1.90;99.90;;;;;;5056009;28;20200;-88
2021/12/07 02:20:24;;;;;;;8.10;5.73;;;1.90;99.90;;;;;;5055925;28;20234;-89
2021/12/07 02:22:51;;;;;;;6.53;4.47;;;1.90;99.90;;;;;;5056264;28;20190;-89
2021/12/07 02:25:19;;;;;;;8.20;5.80;;;1.90;99.90;;;;;;5056387;28;20184;-89
2021/12/07 02:27:47;;;;;;;10.33;5.53;;;1.90;99.90;;;;;;5055717;28;20231;-89
2021/12/07 02:30:19;;;;;;;7.97;5.50;;;1.90;99.90;;;;;;5055811;28;20205;-89
2021/12/07 02:33:09;;;;;;;9.43;5.63;;;1.90;99.90;;;;;;5055505;28;20212;-89
2021/12/07 02:36:14;;;;;;;9.27;5.77;;;2.00;99.90;;;;;;5055913;28;20192;-89
2021/12/07 02:38:40;;;;;;;8.47;6.00;;;2.00;99.90;;;;;;5055751;28;20200;-88
2021/12/07 02:41:06;;;;;;;10.27;6.47;;;2.00;99.90;;;;;;5056201;28;20173;-89
2021/12/07 02:43:34;;;;;;;9.07;5.73;;;2.00;99.90;;;;;;5056289;28;20235;-89
2021/12/07 02:46:00;;;;;;;10.87;6.50;;;2.00;99.90;;;;;;5055783;28;20181;-89
2021/12/07 02:48:27;;;;;;;9.23;5.83;;;2.00;99.90;;;;;;5055713;28;20197;-89
2021/12/07 02:50:56;;;;;;;8.20;5.57;;;2.00;99.90;;;;;;5056377;28;20238;-89
2021/12/07 02:53:27;;;;;;;7.83;5.37;;;2.10;99.90;;;;;;5055887;28;20255;-89
2021/12/07 02:55:57;;;;;;;7.97;5.10;;;2.10;99.90;;;;;;5055856;28;20195;-89
2021/12/07 02:58:24;;;;;;;8.60;5.30;;;2.10;99.90;;;;;;5055674;28;20189;-89
2021/12/07 03:01:00;;;;;;;7.20;4.77;;;2.10;99.90;;;;;;5055438;28;20222;-89
2021/12/07 03:03:29;;;;;;;9.27;5.50;;;2.10;99.90;;;;;;5055458;28;20195;-89
2021/12/07 03:09:08;;;;;;;9.10;4.83;;;2.10;99.90;;;;;;5071659;28;20204;-89
2021/12/07 03:28:07;;;;;;;3.83;1.70;;;2.10;99.90;;;;;;5071709;28;20203;-88
2021/12/07 03:30:35;;;;;;;4.10;1.80;;;2.10;99.90;;;;;;5054799;28;20192;-88
2021/12/07 03:33:03;;;;;;;1.30;1.20;;;2.10;99.90;;;;;;5054934;28;20205;-89
2021/12/07 03:35:31;;;;;;;2.27;1.77;;;2.10;99.90;;;;;;5055289;28;20173;-89
2021/12/07 03:37:58;;;;;;;1.77;1.50;;;2.10;99.90;;;;;;5055473;28;20212;-89
2021/12/07 03:40:25;;;;;;;1.47;1.20;;;2.10;99.90;;;;;;5055277;28;20173;-89
2021/12/07 03:42:53;;;;;;;2.20;1.60;;;2.10;99.90;;;;;;5055593;28;20181;-89
2021/12/07 03:45:19;;;;;;;4.90;2.20;;;2.10;99.90;;;;;;5055153;28;20181;-89
2021/12/07 03:47:45;;;;;;;2.83;1.00;;;2.10;99.90;;;;;;5055438;28;20219;-88
2021/12/07 03:50:12;;;;;;;1.30;1.00;;;2.10;99.90;;;;;;5054639;28;20203;-89
2021/12/07 03:52:38;;;;;;;1.10;0.90;;;2.10;99.90;;;;;;5054750;28;20182;-89
2021/12/07 03:55:06;;;;;;;1.30;1.00;;;2.10;99.90;;;;;;5054873;28;20260;-89
2021/12/07 03:57:32;;;;;;;0.87;0.87;;;2.10;99.90;;;;;;5054807;28;20173;-88
2021/12/07 04:00:00;;;;;;;1.13;1.03;;;2.10;99.90;;;;;;5054458;28;20604;-89
2021/12/07 04:02:27;;;;;;;1.60;1.10;;;2.10;99.90;;;;;;5055593;28;20185;-89
2021/12/07 04:05:00;;;;;;;1.30;1.10;;;2.10;99.90;;;;;;5055189;28;20187;-88
2021/12/07 04:07:26;;;;;;;0.93;0.90;;;2.10;99.90;;;;;;5054783;28;20181;-89
2021/12/07 04:09:53;;;;;;;1.00;0.90;;;2.10;99.90;;;;;;5054861;28;20260;-89
2021/12/07 04:12:20;;;;;;;0.90;0.80;;;2.10;99.90;;;;;;5054689;28;20174;-88
2021/12/07 04:14:47;;;;;;;1.40;0.90;;;2.10;99.90;;;;;;5054956;28;20310;-89
2021/12/07 04:17:14;;;;;;;0.90;0.90;;;2.10;99.90;;;;;;5071397;28;20180;-89
2021/12/07 04:19:40;;;;;;;2.10;1.10;;;2.10;99.90;;;;;;5057428;28;20169;-88
2021/12/07 04:22:15;;;;;;;2.43;1.10;;;2.10;99.90;;;;;;5058612;28;20177;-89
2021/12/07 04:24:41;;;;;;;1.33;1.13;;;2.10;99.90;;;;;;5058344;28;20248;-88
2021/12/07 04:27:07;;;;;;;1.87;1.40;;;2.10;99.90;;;;;;5058131;28;20185;-89
2021/12/07 04:29:33;;;;;;;1.67;1.20;;;2.20;99.90;;;;;;5057771;28;20208;-89
2021/12/07 04:32:26;;;;;;;1.63;1.40;;;2.20;99.90;;;;;;5046831;28;20189;-88
2021/12/07 04:34:52;;;;;;;1.97;0.97;;;2.20;99.90;;;;;;5038293;28;20206;-89
2021/12/07 04:37:18;;;;;;;1.60;1.37;;;2.20;99.90;;;;;;5038120;28;20177;-89
2021/12/07 04:39:44;;;;;;;3.47;1.20;;;2.30;99.90;;;;;;5038162;28;20264;-88
2021/12/07 04:42:11;;;;;;;2.63;1.60;;;2.30;99.90;;;;;;5038176;28;20203;-89
2021/12/07 04:44:44;;;;;;;4.03;1.23;;;2.30;99.90;;;;;;5038403;28;20190;-89
2021/12/07 04:47:21;;;;;;;3.03;1.30;;;2.40;99.90;;;;;;5038316;28;20174;-89
2021/12/07 04:57:46;;;;;;;2.33;1.30;;;2.40;99.90;;;;;;5074389;28;20197;-89
2021/12/07 05:00:25;;;;;;;2.97;1.70;;;2.40;99.90;;;;;;5057812;28;20161;-89
2021/12/07 05:02:56;;;;;;;5.30;2.40;;;2.40;99.90;;;;;;5054604;28;20174;-89
2021/12/07 05:05:45;;;;;;;6.03;2.90;;;2.40;99.90;;;;;;5054724;28;20189;-89
2021/12/07 05:08:15;;;;;;;6.33;2.90;;;2.50;99.90;;;;;;5060004;28;20190;-89
2021/12/07 05:34:48;;;;;;;5.20;3.53;;;2.30;99.90;;;;;;5090855;28;20224;-90
2021/12/07 05:40:34;;;;;;;4.10;1.70;;;2.30;99.90;;;;;;5074480;28;20181;-90
2021/12/07 05:43:02;;;;;;;9.37;2.20;;;2.30;99.90;;;;;;5046351;28;20231;-90
2021/12/07 05:45:44;;;;;;;4.43;2.10;;;2.30;99.90;;;;;;5070800;28;20197;-90
2021/12/07 05:48:10;;;;;;;4.43;2.30;;;2.30;99.90;;;;;;5070492;28;20198;-89
2021/12/07 05:50:38;;;;;;;5.40;2.67;;;2.30;99.90;;;;;;5070350;28;20166;-90
2021/12/07 05:53:06;;;;;;;3.30;2.40;;;2.30;99.90;;;;;;5070505;28;20205;-90
2021/12/07 05:55:33;;;;;;;3.70;2.50;;;2.30;99.90;;;;;;5070730;28;20200;-90
2021/12/07 05:57:59;;;;;;;4.53;3.13;;;2.30;99.90;;;;;;5070317;28;20202;-90
2021/12/07 06:00:28;;;;;;;3.17;2.40;;;2.30;99.90;;;;;;5073859;28;20178;-89
2021/12/07 06:03:05;;;;;;;3.03;1.70;;;2.30;99.90;;;;;;5056854;28;20173;-89
2021/12/07 06:05:32;;;;;;;2.27;1.60;;;2.30;99.90;;;;;;5034957;28;20182;-90
2021/12/07 06:07:58;;;;;;;3.17;1.83;;;2.20;99.90;;;;;;5056590;28;20197;-85
2021/12/07 06:13:48;;;;;;;2.43;1.47;;;2.10;99.90;;;;;;5073503;28;20205;-90
2021/12/07 06:16:16;;;;;;;3.90;1.50;;;2.00;99.90;;;;;;5056609;28;20182;-90
2021/12/07 06:18:42;;;;;;;2.40;1.57;;;2.00;99.90;;;;;;5056008;28;20207;-90
2021/12/07 06:21:08;;;;;;;1.90;1.20;;;2.00;99.90;;;;;;5056382;28;20192;-90
2021/12/07 06:23:34;;;;;;;1.77;1.20;;;2.00;99.90;;;;;;5056691;28;20186;-90
2021/12/07 06:25:59;;;;;;;1.80;1.43;;;2.00;99.90;;;;;;5056842;28;20184;-89
2021/12/07 06:28:25;;;;;;;2.77;1.00;;;2.00;99.90;;;;;;5056745;28;20204;-90
2021/12/07 06:30:52;;;;;;;2.03;0.80;;;2.00;99.90;;;;;;5054565;28;20184;-90
2021/12/07 06:33:20;;;;;;;1.83;1.00;;;2.00;99.90;;;;;;5036733;28;20215;-89
2021/12/07 06:35:51;;;;;;;1.53;1.07;;;2.10;99.90;;;;;;5036323;28;20186;-90
2021/12/07 06:38:18;;;;;;;1.90;0.90;;;2.10;99.90;;;;;;5035995;28;20206;-89
2021/12/07 06:40:47;;;;;;;2.97;1.00;;;2.10;99.90;;;;;;5039108;28;20566;-90
2021/12/07 06:43:13;;;;;;;1.90;0.70;;;2.10;99.90;;;;;;5036272;28;20193;-91
2021/12/07 06:45:39;;;;;;;0.73;0.70;;;2.10;99.90;;;;;;5036121;28;20247;-91
2021/12/07 06:48:06;;;;;;;1.83;1.00;;;2.10;99.90;;;;;;5035732;28;20288;-90
2021/12/07 06:50:32;;;;;;;1.20;1.10;;;2.10;99.90;;;;;;5037066;28;20272;-90
2021/12/07 06:52:58;;;;;;;2.30;1.40;;;2.10;99.90;;;;;;5036142;28;20181;-90
2021/12/07 06:55:24;;;;;;;1.30;1.10;;;2.00;99.90;;;;;;5035839;28;20205;-90
2021/12/07 06:57:50;;;;;;;2.00;1.40;;;2.00;99.90;;;;;;5035670;28;20202;-90
2021/12/07 07:00:17;;;;;;;2.47;1.77;;;2.00;99.90;;;;;;5035837;28;20180;-90
2021/12/07 07:02:43;;;;;;;6.33;4.10;;;2.00;99.90;;;;;;5035980;28;20174;-91
2021/12/07 07:05:10;;;;;;;11.53;5.50;;;2.00;99.90;;;;;;5035944;28;20212;-90
2021/12/07 07:07:36;;;;;;;9.20;5.27;;;2.00;99.90;;;;;;5035900;28;20198;-90
2021/12/07 07:10:04;;;;;;;7.70;3.47;;;2.00;99.90;;;;;;5035986;28;20184;-91
2021/12/07 07:12:30;;;;;;;4.63;3.10;;;2.00;99.90;;;;;;5035557;28;20208;-90
2021/12/07 07:14:56;;;;;;;3.97;3.13;;;2.00;99.90;;;;;;5035519;28;20206;-90
2021/12/07 07:17:22;;;;;;;26.73;11.87;;;2.00;99.90;;;;;;5035813;28;20173;-90
2021/12/07 07:19:48;;;;;;;8.97;5.23;;;2.00;99.90;;;;;;5036202;28;20185;-90
2021/12/07 07:22:14;;;;;;;9.27;4.73;;;2.00;99.90;;;;;;5035136;28;20185;-89
2021/12/07 07:24:42;;;;;;;11.17;5.10;;;2.00;99.90;;;;;;5034715;28;20181;-89
2021/12/07 07:30:26;;;;;;;6.83;3.80;;;1.90;99.90;;;;;;5052081;28;20261;-91
2021/12/07 07:32:52;;;;;;;4.73;2.97;;;1.90;99.90;;;;;;5035744;28;20205;-88
2021/12/07 07:35:19;;;;;;;3.77;2.90;;;1.90;99.90;;;;;;5037764;28;20181;-89
2021/12/07 07:37:46;;;;;;;4.97;3.43;;;1.90;99.90;;;;;;5035176;28;20201;-90
2021/12/07 07:40:16;;;;;;;8.17;3.13;;;1.90;99.90;;;;;;5035752;28;20623;-90
2021/12/07 07:42:42;;;;;;;6.10;3.43;;;1.90;99.90;;;;;;5035605;28;20202;-91
2021/12/07 07:45:29;;;;;;;4.67;3.33;;;1.90;99.90;;;;;;5051634;28;20194;-89
2021/12/07 07:47:55;;;;;;;5.60;4.10;;;1.90;99.90;;;;;;5035627;28;20205;-90
2021/12/07 07:50:21;;;;;;;7.43;3.83;;;2.00;99.90;;;;;;5035000;28;20225;-90
2021/12/07 07:52:47;;;;;;;4.30;3.00;;;2.00;99.90;;;;;;5043762;28;20211;-90
2021/12/07 07:55:14;;;;;;;3.10;2.20;;;2.10;99.90;;;;;;5053801;28;20213;-82
2021/12/07 07:57:40;;;;;;;6.47;2.50;;;2.10;99.90;;;;;;5059451;28;20276;-90
2021/12/07 08:00:10;;;;;;;5.10;2.57;;;2.10;99.90;;;;;;5057976;28;20219;-90
2021/12/07 08:02:39;;;;;;;6.07;3.07;;;2.10;99.90;;;;;;5075303;28;20211;-89
2021/12/07 08:05:05;;;;;;;6.10;3.33;;;2.10;99.90;;;;;;5058778;28;20185;-90
2021/12/07 08:07:31;;;;;;;8.47;4.40;;;2.20;99.90;;;;;;5059037;28;20187;-90
2021/12/07 08:10:10;;;;;;;6.63;3.20;;;2.20;99.90;;;;;;5058100;28;20177;-90
2021/12/07 08:12:36;;;;;;;10.20;3.30;;;2.20;99.90;;;;;;5058917;28;20173;-90
2021/12/07 08:15:04;;;;;;;6.60;3.37;;;2.20;99.90;;;;;;5058864;28;20209;-90
2021/12/07 08:17:30;;;;;;;5.50;3.40;;;2.30;99.90;;;;;;5058871;28;20181;-90
2021/12/07 08:19:56;;;;;;;3.60;3.20;;;2.30;99.90;;;;;;5075198;28;20185;-90
2021/12/07 08:22:22;;;;;;;6.00;3.07;;;2.30;99.90;;;;;;5058874;28;20252;-90
2021/12/07 08:24:49;;;;;;;5.20;2.77;;;2.30;99.90;;;;;;5058441;28;20181;-90
2021/12/07 08:27:15;;;;;;;6.33;3.13;;;2.40;99.90;;;;;;5058488;28;20181;-90
2021/12/07 08:29:41;;;;;;;6.50;3.40;;;2.40;99.90;;;;;;5058176;28;20173;-89
2021/12/07 08:32:08;;;;;;;4.63;2.90;;;2.40;99.90;;;;;;5058700;28;20204;-90
2021/12/07 08:34:33;;;;;;;4.27;2.93;;;2.40;99.90;;;;;;5058475;28;20209;-90
2021/12/07 08:36:59;;;;;;;5.50;3.67;;;2.40;99.90;;;;;;5058109;28;20504;-90
2021/12/07 08:39:25;;;;;;;5.03;3.73;;;2.50;99.90;;;;;;5058448;28;20278;-90
2021/12/07 08:41:51;;;;;;;6.83;4.00;;;2.50;99.90;;;;;;5058282;28;20185;-90
2021/12/07 08:44:47;;;;;;;13.33;9.63;;;2.60;99.90;;;;;;5057753;28;20192;-90
2021/12/07 08:47:13;;;;;;;4.77;3.50;;;2.60;99.90;;;;;;5058410;28;20174;-90
2021/12/07 08:49:39;;;;;;;6.47;4.50;;;2.60;99.90;;;;;;5057941;28;20238;-90
2021/12/07 08:52:05;;;;;;;6.27;4.63;;;2.70;99.90;;;;;;5058318;28;20170;-90
2021/12/07 08:59:38;;;;;;;5.23;3.63;;;2.80;99.90;;;;;;5057890;28;20682;-90
2021/12/07 09:00:11;;;;;;;7.77;3.70;;;2.80;99.90;;;;;;5054275;28;20253;-90
2021/12/07 09:02:37;;;;;;;7.27;4.20;;;2.80;99.90;;;;;;5054446;28;20167;-90
2021/12/07 09:05:03;;;;;;;5.60;3.57;;;2.80;99.90;;;;;;5037606;28;20189;-90
2021/12/07 09:07:29;;;;;;;5.23;3.30;;;2.90;99.90;;;;;;5037965;28;20181;-90
2021/12/07 09:09:59;;;;;;;7.60;3.23;;;3.00;99.90;;;;;;5037252;28;20182;-90
2021/12/07 09:12:25;;;;;;;4.90;3.00;;;3.10;99.90;;;;;;5037744;28;20178;-90
2021/12/07 09:14:53;;;;;;;5.07;2.97;;;3.20;99.90;;;;;;5037942;28;20206;-90
2021/12/07 09:17:19;;;;;;;5.17;2.83;;;3.30;99.90;;;;;;5037560;28;20182;-90
2021/12/07 09:19:51;;;;;;;5.37;2.80;;;3.40;99.90;;;;;;5037421;28;20185;-90
2021/12/07 09:22:17;;;;;;;7.47;3.07;;;3.50;99.90;;;;;;5037760;28;20174;-90
2021/12/07 09:24:43;;;;;;;5.50;2.60;;;3.60;99.90;;;;;;5037803;28;20236;-90
2021/12/07 09:27:09;;;;;;;6.30;2.80;;;3.70;99.90;;;;;;5037795;28;20204;-90
2021/12/07 09:29:36;;;;;;;4.77;2.83;;;3.70;99.90;;;;;;5037017;28;20194;-90
2021/12/07 09:32:04;;;;;;;5.10;2.57;;;3.80;99.90;;;;;;5037784;28;20216;-90
2021/12/07 09:34:30;;;;;;;3.20;2.20;;;3.90;99.90;;;;;;5037460;28;20205;-90
2021/12/07 09:36:56;;;;;;;5.27;2.13;;;4.00;99.90;;;;;;5037504;28;20178;-90
2021/12/07 09:39:26;;;;;;;4.93;2.90;;;4.10;99.90;;;;;;5036409;28;20198;-89
2021/12/07 09:41:53;;;;;;;6.50;2.97;;;4.00;99.90;;;;;;5037536;28;20197;-90
2021/12/07 09:44:19;;;;;;;5.53;2.80;;;4.00;99.90;;;;;;5037545;28;20178;-90
2021/12/07 09:46:45;;;;;;;5.47;2.77;;;4.10;99.90;;;;;;5036926;28;20244;-90
2021/12/07 09:49:12;;;;;;;4.40;2.40;;;4.20;99.90;;;;;;5036847;28;20201;-89
2021/12/07 09:51:39;;;;;;;7.40;3.00;;;4.20;99.90;;;;;;5037470;28;20181;-88
2021/12/07 09:54:08;;;;;;;4.87;2.30;;;4.40;99.90;;;;;;5038004;28;20209;-89
2021/12/07 09:56:35;;;;;;;4.80;2.20;;;4.30;99.90;;;;;;5057025;28;20177;-89
2021/12/07 09:59:07;;;;;;;4.07;1.97;;;4.30;99.90;;;;;;5044781;28;20209;-89
2021/12/07 10:01:35;;;;;;;10.63;2.30;;;4.30;99.90;;;;;;5047545;28;20185;-89
2021/12/07 10:04:02;;;;;;;3.87;1.93;;;4.30;99.90;;;;;;5056818;28;20193;-89
2021/12/07 10:06:28;;;;;;;6.33;2.67;;;4.40;99.90;;;;;;5041755;28;20186;-89
2021/12/07 10:08:55;;;;;;;8.33;3.00;;;4.50;99.90;;;;;;5044438;28;20599;-89
2021/12/07 10:11:23;;;;;;;6.20;2.40;;;4.60;99.90;;;;;;5037081;28;20170;-89
2021/12/07 10:13:51;;;;;;;7.97;2.73;;;4.60;99.90;;;;;;5048821;28;20200;-89
2021/12/07 10:16:19;;;;;;;4.47;2.17;;;4.70;99.90;;;;;;5036311;28;20174;-89
2021/12/07 10:18:46;;;;;;;10.47;2.80;;;4.80;99.90;;;;;;5054912;28;20195;-89
2021/12/07 10:21:30;;;;;;;6.77;3.20;;;4.80;99.90;;;;;;5040611;28;20711;-90
2021/12/07 10:24:06;;;;;;;8.67;3.00;;;4.90;99.90;;;;;;5052960;28;20544;-89
2021/12/07 10:26:40;;;;;;;6.37;2.50;;;4.90;99.90;;;;;;5064772;28;20221;-90
2021/12/07 10:29:21;;;;;;;5.80;2.63;;;5.00;99.90;;;;;;5038897;28;20220;-89
2021/12/07 10:31:54;;;;;;;3.43;2.17;;;5.00;99.90;;;;;;5037533;28;20183;-90
2021/12/07 10:34:25;;;;;;;6.13;2.37;;;4.90;99.90;;;;;;5036600;28;20325;-90
2021/12/07 10:36:58;;;;;;;4.90;1.93;;;5.00;99.90;;;;;;5056065;28;20210;-90
2021/12/07 10:39:34;;;;;;;5.47;2.53;;;5.00;99.90;;;;;;5061320;28;20255;-90
2021/12/07 10:42:36;;;;;;;2.83;1.77;;;5.10;99.90;;;;;;5049674;28;20174;-91
2021/12/07 10:45:09;;;;;;;5.20;2.33;;;5.20;99.90;;;;;;5053086;28;20620;-90
2021/12/07 10:47:36;;;;;;;5.13;1.63;;;5.20;99.90;;;;;;5069800;28;20208;-91
2021/12/07 10:50:13;;;;;;;3.50;1.40;;;5.30;99.90;;;;;;5069276;28;20201;-90
2021/12/07 10:52:57;;;;;;;6.23;1.77;;;5.30;99.90;;;;;;5069492;28;20176;-89
2021/12/07 10:56:19;;;;;;;4.40;1.73;;;5.30;99.90;;;;;;5068946;28;20187;-90
2021/12/07 10:59:12;;;;;;;3.93;1.63;;;5.40;99.90;;;;;;5035970;28;20228;-90
2021/12/07 11:01:41;;;;;;;5.40;1.80;;;5.50;99.90;;;;;;5069653;28;20185;-90
2021/12/07 11:04:24;;;;;;;2.40;1.60;;;5.50;99.90;;;;;;5056077;28;20185;-90
2021/12/07 11:07:16;;;;;;;6.30;1.53;;;5.50;99.90;;;;;;5051994;28;20187;-91
2021/12/07 11:10:23;;;;;;;3.80;1.40;;;5.50;99.90;;;;;;5061997;28;20165;-88
2021/12/07 11:13:05;;;;;;;3.50;1.50;;;5.50;99.90;;;;;;5055732;28;20185;-88
2021/12/07 11:15:35;;;;;;;4.23;1.50;;;5.50;99.90;;;;;;5054723;28;20207;-88
2021/12/07 11:18:11;;;;;;;2.63;1.63;;;5.60;99.90;;;;;;5054972;28;20201;-88
2021/12/07 11:20:38;;;;;;;4.97;1.63;;;5.70;99.90;;;;;;5054582;28;20182;-89
2021/12/07 11:23:06;;;;;;;3.67;1.53;;;5.70;99.90;;;;;;5055821;28;20182;-89
2021/12/07 11:31:57;;;;;;;4.23;1.60;;;5.70;99.90;;;;;;5015836;28;20177;-80
2021/12/07 11:34:36;;;;;;;5.13;1.30;;;5.70;99.90;;;;;;5056617;28;20668;-81
2021/12/07 11:37:12;;;;;;;6.57;1.50;;;5.70;99.90;;;;;;5051458;28;20179;-86
2021/12/07 11:39:52;;;;;;;2.07;1.47;;;5.60;99.90;;;;;;5054839;28;20203;-88
2021/12/07 11:42:28;;;;;;;2.60;1.20;;;5.50;99.90;;;;;;5067217;28;20180;-87
2021/12/07 11:45:15;;;;;;;5.20;1.53;;;5.50;99.90;;;;;;5035474;28;20182;-88
2021/12/07 11:48:03;;;;;;;4.77;1.60;;;5.40;99.90;;;;;;5035208;28;20198;-88
2021/12/07 11:50:43;;;;;;;4.83;1.17;;;5.30;99.90;;;;;;5035074;28;20184;-88
2021/12/07 11:53:10;;;;;;;3.07;1.60;;;5.20;99.90;;;;;;5043896;28;20184;-88
2021/12/07 11:55:40;;;;;;;2.63;1.33;;;5.10;99.90;;;;;;5052104;28;20173;-88
2021/12/07 11:58:08;;;;;;;4.33;1.47;;;5.10;99.90;;;;;;5052201;28;20221;-89
2021/12/07 12:00:42;;;;;;;2.80;1.40;;;5.20;99.90;;;;;;5050848;28;20267;-88
2021/12/07 12:06:33;;;;;;;5.00;2.93;;;5.50;99.90;;;;;;5071654;28;20803;-88
2021/12/07 12:08:59;;;;;;;9.63;3.77;;;5.70;99.90;;;;;;5054800;28;20199;-88
2021/12/07 12:11:50;;;;;;;4.60;1.80;;;5.80;99.90;;;;;;5055087;28;20178;-88
2021/12/07 12:14:54;;;;;;;4.87;1.90;;;5.90;99.90;;;;;;5056721;28;20204;-89
2021/12/07 12:20:22;;;;;;;4.43;1.50;;;6.20;99.90;;;;;;5050330;28;20217;-89
2021/12/07 12:22:54;;;;;;;4.17;1.30;;;6.30;99.90;;;;;;5019735;28;20226;-89
2021/12/07 12:25:22;;;;;;;4.13;1.67;;;6.30;99.90;;;;;;5021795;28;20197;-89
2021/12/07 12:27:51;;;;;;;8.93;1.57;;;6.30;99.90;;;;;;5018775;28;20223;-89
2021/12/07 12:30:23;;;;;;;4.50;1.93;;;6.40;99.90;;;;;;5034375;28;20182;-89
2021/12/07 12:32:57;;;;;;;4.23;1.77;;;6.50;99.90;;;;;;5021784;28;20183;-88
2021/12/07 12:35:41;;;;;;;3.60;1.30;;;6.40;99.90;;;;;;5046083;28;20239;-88
2021/12/07 12:38:21;;;;;;;4.00;1.80;;;6.50;99.90;;;;;;5025600;28;20334;-88
2021/12/07 12:41:01;;;;;;;2.80;1.20;;;6.60;99.90;;;;;;5053662;28;20255;-90
2021/12/07 12:43:56;;;;;;;4.20;1.57;;;6.60;99.90;;;;;;5030006;28;20222;-89
2021/12/07 12:46:31;;;;;;;3.47;1.30;;;6.60;99.90;;;;;;5037980;28;20197;-89
2021/12/07 12:49:06;;;;;;;2.37;1.13;;;6.60;99.90;;;;;;5037820;28;20251;-88
2021/12/07 12:51:43;;;;;;;5.27;1.20;;;6.40;99.90;;;;;;5020907;28;20185;-89
2021/12/07 12:54:10;;;;;;;3.13;1.30;;;6.40;99.90;;;;;;5028402;28;20220;-89
2021/12/07 12:56:37;;;;;;;6.63;1.23;;;6.30;99.90;;;;;;5018047;28;20182;-89
2021/12/07 12:59:08;;;;;;;3.07;1.93;;;6.40;99.90;;;;;;5024561;28;20246;-89
2021/12/07 13:01:39;;;;;;;4.73;1.13;;;6.40;99.90;;;;;;5037991;28;20254;-89
2021/12/07 13:04:48;;;;;;;3.23;1.27;;;6.60;99.90;;;;;;5037814;28;20181;-89
2021/12/07 13:07:26;;;;;;;4.80;1.70;;;6.70;99.90;;;;;;5021523;28;20177;-89
2021/12/07 13:09:56;;;;;;;4.10;1.90;;;6.60;99.90;;;;;;5037366;28;20175;-89
2021/12/07 13:12:38;;;;;;;4.70;1.90;;;6.50;99.90;;;;;;5023081;28;20189;-89
2021/12/07 13:15:07;;;;;;;3.37;1.20;;;6.40;99.90;;;;;;5031950;28;20242;-89
2021/12/07 13:17:41;;;;;;;3.43;1.20;;;6.30;99.90;;;;;;5019636;28;20200;-89
2021/12/07 13:20:34;;;;;;;5.87;1.37;;;6.40;99.90;;;;;;5036860;28;20201;-89
2021/12/07 13:23:32;;;;;;;5.53;1.60;;;6.30;99.90;;;;;;5021879;28;20182;-89
2021/12/07 13:26:01;;;;;;;5.07;1.50;;;6.50;99.90;;;;;;5021550;28;20185;-89
2021/12/07 13:28:29;;;;;;;4.00;1.23;;;6.60;99.90;;;;;;5019287;28;20213;-89
2021/12/07 13:31:04;;;;;;;2.90;1.20;;;6.70;99.90;;;;;;5027449;28;20267;-86
2021/12/07 13:33:39;;;;;;;5.53;1.47;;;6.80;99.90;;;;;;5017178;28;20224;-87
2021/12/07 13:36:27;;;;;;;6.43;1.47;;;6.90;99.90;;;;;;5027645;28;20206;-87
2021/12/07 13:39:06;;;;;;;3.03;1.30;;;7.00;99.90;;;;;;5025235;28;20283;-87
2021/12/07 13:41:34;;;;;;;2.73;1.40;;;7.20;99.90;;;;;;5031329;28;20275;-87
2021/12/07 13:44:00;;;;;;;4.20;1.77;;;7.30;99.90;;;;;;5021303;28;20194;-87
2021/12/07 13:46:38;;;;;;;3.80;1.10;;;7.30;99.90;;;;;;5020007;28;20232;-87
2021/12/07 13:49:11;;;;;;;4.10;2.23;;;7.40;99.90;;;;;;5017899;28;20220;-88
2021/12/07 13:51:38;;;;;;;2.60;1.50;;;7.40;99.90;;;;;;5018448;28;20213;-87
2021/12/07 13:54:06;;;;;;;4.60;1.77;;;7.50;99.90;;;;;;5019550;28;20198;-88
2021/12/07 13:56:34;;;;;;;5.03;1.77;;;7.50;99.90;;;;;;5018932;28;20170;-87
2021/12/07 13:59:04;;;;;;;2.83;1.40;;;7.50;99.90;;;;;;5020543;28;20209;-87
2021/12/07 14:01:32;;;;;;;3.77;1.70;;;7.50;99.90;;;;;;5020656;28;20193;-86
2021/12/07 14:03:59;;;;;;;2.77;1.20;;;7.50;99.90;;;;;;5037619;28;20263;-87
2021/12/07 14:06:26;;;;;;;3.77;1.10;;;7.40;99.90;;;;;;5020450;28;20264;-87
2021/12/07 14:08:53;;;;;;;7.57;2.20;;;7.30;99.90;;;;;;5017890;28;20220;-87
2021/12/07 14:11:21;;;;;;;2.67;1.13;;;7.30;99.90;;;;;;5036143;28;20181;-87
2021/12/07 14:13:49;;;;;;;3.47;1.47;;;7.30;99.90;;;;;;5017693;28;20205;-87
2021/12/07 14:16:26;;;;;;;4.07;1.10;;;7.20;99.90;;;;;;5034232;28;20170;-87
2021/12/07 14:18:54;;;;;;;2.37;1.10;;;7.10;99.90;;;;;;5019077;28;20300;-87
2021/12/07 14:21:21;;;;;;;5.23;1.50;;;7.00;99.90;;;;;;5016137;28;20428;-87
2021/12/07 14:23:57;;;;;;;3.13;1.40;;;7.00;99.90;;;;;;5031042;28;20184;-87
2021/12/07 14:26:25;;;;;;;5.77;1.30;;;6.90;99.90;;;;;;5033458;28;20217;-88
2021/12/07 14:28:56;;;;;;;4.83;1.90;;;6.90;99.90;;;;;;5018753;28;20717;-88
2021/12/07 14:31:24;;;;;;;3.27;1.63;;;6.80;99.90;;;;;;5019747;28;20185;-88
2021/12/07 14:34:00;;;;;;;1.83;1.10;;;6.80;99.90;;;;;;5029009;28;20206;-88
2021/12/07 14:36:31;;;;;;;2.60;1.10;;;6.80;99.90;;;;;;5018875;28;20173;-88
2021/12/07 14:39:19;;;;;;;2.60;1.10;;;6.80;99.90;;;;;;5020481;28;20190;-88
2021/12/07 14:41:49;;;;;;;3.23;1.77;;;6.80;99.90;;;;;;5034634;28;20197;-87
2021/12/07 14:44:19;;;;;;;4.27;1.73;;;6.70;99.90;;;;;;5019943;28;20276;-87
2021/12/07 14:46:47;;;;;;;4.57;1.67;;;6.60;99.90;;;;;;5020862;28;20177;-87
2021/12/07 14:49:13;;;;;;;6.20;2.70;;;6.50;99.90;;;;;;5018395;28;20713;-87
2021/12/07 14:51:41;;;;;;;7.93;4.20;;;6.40;99.90;;;;;;5017234;28;20543;-87
2021/12/07 14:54:08;;;;;;;8.63;4.13;;;6.30;99.90;;;;;;5019140;28;20204;-87
2021/12/07 14:56:35;;;;;;;6.10;3.00;;;6.10;99.90;;;;;;5035406;28;20182;-87
2021/12/07 14:59:06;;;;;;;4.73;3.00;;;6.00;99.90;;;;;;5034641;28;20215;-87
2021/12/07 15:01:36;;;;;;;5.67;2.30;;;6.00;99.90;;;;;;5018551;28;20181;-88
2021/12/07 15:04:09;;;;;;;5.50;2.13;;;5.90;99.90;;;;;;5023169;28;20204;-88
2021/12/07 15:06:36;;;;;;;5.13;1.80;;;5.70;99.90;;;;;;5032354;28;20184;-87
2021/12/07 15:09:10;;;;;;;5.73;2.37;;;5.70;99.90;;;;;;5028801;28;20208;-87
2021/12/07 15:11:39;;;;;;;6.77;2.40;;;5.60;99.90;;;;;;5019497;28;20181;-88
2021/12/07 15:14:08;;;;;;;26.60;11.60;;;5.50;99.90;;;;;;5019211;28;20205;-88
2021/12/07 15:16:40;;;;;;;25.43;11.27;;;5.40;99.90;;;;;;5020147;28;20203;-87
2021/12/07 15:19:06;;;;;;;15.47;7.47;;;5.30;99.90;;;;;;5012819;28;20222;-88
2021/12/07 15:21:37;;;;;;;12.70;6.20;;;5.20;99.90;;;;;;5035377;28;20173;-88